Skip Navigation Links
NOAA logo - Click to go to the NOAA homepage
NOAA's National Weather Service
Alaska Aviation Weather Unit
  NWS logo - Click to go to the NWS homepage
Left Navbar Graphic     02 AKDT = 10 GMT

   
NOAA is celebrating 200 years of science, service, and stewardship. Visit the NOAA 200th celebration Web site to learn more.
USA.gov is the U.S. Government's official Web portal to all Federal, state and local government Web resources and services.
Facebook
NWS on Facebook

AAWU Home :: Display TAF Add Bookmark
METAR PAWD 270453Z AUTO 34008KT 10SM CLR 00/M08 A2956 RMK AO2 SLP010
     T00001083 TSNO $=

METAR PAWD 270553Z AUTO 35009KT 10SM CLR 00/M09 A2956 RMK AO2 SLP009
     T00001089 10039 21011 56003 TSNO $=

METAR PAWD 270653Z AUTO 02009KT 10SM CLR M01/M09 A2955 RMK AO2 SLP006
     T10111094 TSNO $=

METAR PAWD 270753Z AUTO 02011KT 10SM CLR M02/M10 A2954 RMK AO2 SLP003
     T10171100 TSNO $=

METAR PAWD 270853Z AUTO 01010KT 10SM CLR M02/M10 A2954 RMK SLP002
     T10221100 400391044 56007 TSNO $ VIA AUTODIAL=

METAR PAWD 270953Z AUTO 03013KT 10SM CLR M02/M10 A2953 RMK AO2 SLP999
     T10221100 TSNO $=


NOAA's National Weather Service
Alaska Aviation Weather Unit
6930 Sand Lake Road
Anchorage, AK 99502-1845
Disclaimer
Credits
Glossary
Privacy Policy
About Us
Career Opportunities
Contact AAWU Internet Services Site last modified: April, 17th 2012